sensor_id;sensor_type;location;lat;lon;timestamp;temperature;humidity
25248;DHT22;13191;47.472;11.214;2023-04-03T00:00:29;2.70;99.90
25248;DHT22;13191;47.472;11.214;2023-04-03T00:02:54;2.70;99.90
25248;DHT22;13191;47.472;11.214;2023-04-03T00:05:20;2.80;99.90
25248;DHT22;13191;47.472;11.214;2023-04-03T00:07:45;2.90;99.90
25248;DHT22;13191;47.472;11.214;2023-04-03T00:10:11;2.90;99.90
25248;DHT22;13191;47.472;11.214;2023-04-03T00:12:37;2.80;99.90
25248;DHT22;13191;47.472;11.214;2023-04-03T00:15:03;2.60;99.90
25248;DHT22;13191;47.472;11.214;2023-04-03T00:17:29;2.60;99.90
25248;DHT22;13191;47.472;11.214;2023-04-03T00:19:54;2.50;99.90
25248;DHT22;13191;47.472;11.214;2023-04-03T00:29:37;2.00;99.90
25248;DHT22;13191;47.472;11.214;2023-04-03T00:32:03;1.90;99.90
25248;DHT22;13191;47.472;11.214;2023-04-03T00:34:28;2.00;99.90
25248;DHT22;13191;47.472;11.214;2023-04-03T00:36:54;2.00;99.90
25248;DHT22;13191;47.472;11.214;2023-04-03T00:39:19;1.90;99.90
25248;DHT22;13191;47.472;11.214;2023-04-03T00:41:45;1.90;99.90
25248;DHT22;13191;47.472;11.214;2023-04-03T00:44:21;2.00;99.90
25248;DHT22;13191;47.472;11.214;2023-04-03T00:46:47;1.90;99.90
25248;DHT22;13191;47.472;11.214;2023-04-03T00:49:12;2.00;99.90
25248;DHT22;13191;47.472;11.214;2023-04-03T00:51:38;1.90;99.90
25248;DHT22;13191;47.472;11.214;2023-04-03T00:54:04;1.90;99.90
25248;DHT22;13191;47.472;11.214;2023-04-03T00:56:30;2.00;99.90
25248;DHT22;13191;47.472;11.214;2023-04-03T00:59:00;1.90;99.90
25248;DHT22;13191;47.472;11.214;2023-04-03T01:01:27;1.70;99.90
25248;DHT22;13191;47.472;11.214;2023-04-03T01:03:53;1.70;99.90
25248;DHT22;13191;47.472;11.214;2023-04-03T01:06:20;1.70;99.90
25248;DHT22;13191;47.472;11.214;2023-04-03T01:08:47;1.70;99.90
25248;DHT22;13191;47.472;11.214;2023-04-03T01:11:13;1.70;99.90
25248;DHT22;13191;47.472;11.214;2023-04-03T01:13:39;1.70;99.90
25248;DHT22;13191;47.472;11.214;2023-04-03T01:16:06;1.70;99.90
25248;DHT22;13191;47.472;11.214;2023-04-03T01:18:32;1.80;99.90
25248;DHT22;13191;47.472;11.214;2023-04-03T01:26:22;2.10;99.90
25248;DHT22;13191;47.472;11.214;2023-04-03T01:28:48;2.10;99.90
25248;DHT22;13191;47.472;11.214;2023-04-03T01:31:22;2.20;99.90
25248;DHT22;13191;47.472;11.214;2023-04-03T01:33:50;2.30;99.90
25248;DHT22;13191;47.472;11.214;2023-04-03T01:36:17;2.30;99.90
25248;DHT22;13191;47.472;11.214;2023-04-03T01:38:43;2.20;99.90
25248;DHT22;13191;47.472;11.214;2023-04-03T01:41:09;2.30;99.90
25248;DHT22;13191;47.472;11.214;2023-04-03T01:43:34;2.40;99.90
25248;DHT22;13191;47.472;11.214;2023-04-03T01:46:00;2.40;99.90
25248;DHT22;13191;47.472;11.214;2023-04-03T01:48:25;2.40;99.90
25248;DHT22;13191;47.472;11.214;2023-04-03T01:50:51;2.50;99.90
25248;DHT22;13191;47.472;11.214;2023-04-03T01:53:16;2.40;99.90
25248;DHT22;13191;47.472;11.214;2023-04-03T01:55:42;2.40;99.90
25248;DHT22;13191;47.472;11.214;2023-04-03T01:58:08;2.40;99.90
25248;DHT22;13191;47.472;11.214;2023-04-03T02:00:33;2.40;99.90
25248;DHT22;13191;47.472;11.214;2023-04-03T02:02:59;2.40;99.90
25248;DHT22;13191;47.472;11.214;2023-04-03T02:05:24;2.40;99.90
25248;DHT22;13191;47.472;11.214;2023-04-03T02:07:50;2.30;99.90
25248;DHT22;13191;47.472;11.214;2023-04-03T02:10:15;2.30;99.90
25248;DHT22;13191;47.472;11.214;2023-04-03T02:12:41;2.30;99.90
25248;DHT22;13191;47.472;11.214;2023-04-03T02:15:07;2.30;99.90
25248;DHT22;13191;47.472;11.214;2023-04-03T02:17:32;2.30;99.90
25248;DHT22;13191;47.472;11.214;2023-04-03T02:19:58;2.40;99.90
25248;DHT22;13191;47.472;11.214;2023-04-03T02:22:24;2.40;99.90
25248;DHT22;13191;47.472;11.214;2023-04-03T02:24:50;2.40;99.90
25248;DHT22;13191;47.472;11.214;2023-04-03T02:27:17;2.40;99.90
25248;DHT22;13191;47.472;11.214;2023-04-03T02:29:45;2.40;99.90
25248;DHT22;13191;47.472;11.214;2023-04-03T02:32:10;2.50;99.90
25248;DHT22;13191;47.472;11.214;2023-04-03T02:34:36;2.50;99.90
25248;DHT22;13191;47.472;11.214;2023-04-03T02:37:01;2.50;99.90
25248;DHT22;13191;47.472;11.214;2023-04-03T02:39:27;2.50;99.90
25248;DHT22;13191;47.472;11.214;2023-04-03T02:41:52;2.50;99.90
25248;DHT22;13191;47.472;11.214;2023-04-03T02:44:18;2.50;99.90
25248;DHT22;13191;47.472;11.214;2023-04-03T02:46:44;2.50;99.90
25248;DHT22;13191;47.472;11.214;2023-04-03T02:49:10;2.50;99.90
25248;DHT22;13191;47.472;11.214;2023-04-03T02:51:35;2.50;99.90
25248;DHT22;13191;47.472;11.214;2023-04-03T02:54:01;2.60;99.90
25248;DHT22;13191;47.472;11.214;2023-04-03T02:56:26;2.60;99.90
25248;DHT22;13191;47.472;11.214;2023-04-03T02:58:52;2.70;99.90
25248;DHT22;13191;47.472;11.214;2023-04-03T03:01:17;2.60;99.90
25248;DHT22;13191;47.472;11.214;2023-04-03T03:03:43;2.70;99.90
25248;DHT22;13191;47.472;11.214;2023-04-03T03:06:09;2.70;99.90
25248;DHT22;13191;47.472;11.214;2023-04-03T03:08:36;2.70;99.90
25248;DHT22;13191;47.472;11.214;2023-04-03T03:11:02;2.70;99.90
25248;DHT22;13191;47.472;11.214;2023-04-03T03:13:27;2.70;99.90
25248;DHT22;13191;47.472;11.214;2023-04-03T03:15:53;2.60;99.90
25248;DHT22;13191;47.472;11.214;2023-04-03T03:18:18;2.70;99.90
25248;DHT22;13191;47.472;11.214;2023-04-03T03:20:44;2.60;99.90
25248;DHT22;13191;47.472;11.214;2023-04-03T03:23:10;2.60;99.90
25248;DHT22;13191;47.472;11.214;2023-04-03T03:25:39;2.60;99.90
25248;DHT22;13191;47.472;11.214;2023-04-03T03:28:05;2.60;99.90
25248;DHT22;13191;47.472;11.214;2023-04-03T03:30:30;2.70;99.90
25248;DHT22;13191;47.472;11.214;2023-04-03T03:32:56;2.70;99.90
25248;DHT22;13191;47.472;11.214;2023-04-03T03:35:21;2.70;99.90
25248;DHT22;13191;47.472;11.214;2023-04-03T03:37:47;2.70;99.90
25248;DHT22;13191;47.472;11.214;2023-04-03T03:40:12;2.80;99.90
25248;DHT22;13191;47.472;11.214;2023-04-03T03:42:38;2.80;99.90
25248;DHT22;13191;47.472;11.214;2023-04-03T03:45:04;2.70;99.90
25248;DHT22;13191;47.472;11.214;2023-04-03T03:47:30;2.80;99.90
25248;DHT22;13191;47.472;11.214;2023-04-03T03:49:55;2.80;99.90
25248;DHT22;13191;47.472;11.214;2023-04-03T03:52:21;2.80;99.90
25248;DHT22;13191;47.472;11.214;2023-04-03T03:54:46;2.80;99.90
25248;DHT22;13191;47.472;11.214;2023-04-03T03:57:12;2.80;99.90
25248;DHT22;13191;47.472;11.214;2023-04-03T03:59:37;2.80;99.90
25248;DHT22;13191;47.472;11.214;2023-04-03T04:02:03;2.80;99.90
25248;DHT22;13191;47.472;11.214;2023-04-03T04:04:28;2.80;99.90
25248;DHT22;13191;47.472;11.214;2023-04-03T04:06:54;2.70;99.90
25248;DHT22;13191;47.472;11.214;2023-04-03T04:09:19;2.70;99.90
25248;DHT22;13191;47.472;11.214;2023-04-03T04:11:45;2.60;99.90
25248;DHT22;13191;47.472;11.214;2023-04-03T04:14:10;2.60;99.90
25248;DHT22;13191;47.472;11.214;2023-04-03T04:16:37;2.40;99.90
25248;DHT22;13191;47.472;11.214;2023-04-03T04:19:03;2.40;99.90
25248;DHT22;13191;47.472;11.214;2023-04-03T04:21:28;2.40;99.90
25248;DHT22;13191;47.472;11.214;2023-04-03T04:23:54;2.40;99.90
25248;DHT22;13191;47.472;11.214;2023-04-03T04:26:19;2.30;99.90
25248;DHT22;13191;47.472;11.214;2023-04-03T04:28:45;2.30;99.90
25248;DHT22;13191;47.472;11.214;2023-04-03T04:31:11;2.40;99.90
25248;DHT22;13191;47.472;11.214;2023-04-03T04:33:36;2.40;99.90
25248;DHT22;13191;47.472;11.214;2023-04-03T04:36:02;2.40;99.90
25248;DHT22;13191;47.472;11.214;2023-04-03T04:38:27;2.40;99.90
25248;DHT22;13191;47.472;11.214;2023-04-03T04:40:53;2.40;99.90
25248;DHT22;13191;47.472;11.214;2023-04-03T04:43:18;2.50;99.90
25248;DHT22;13191;47.472;11.214;2023-04-03T04:45:44;2.50;99.90
25248;DHT22;13191;47.472;11.214;2023-04-03T04:48:09;2.40;99.90
25248;DHT22;13191;47.472;11.214;2023-04-03T04:50:35;2.40;99.90
25248;DHT22;13191;47.472;11.214;2023-04-03T04:53:00;2.40;99.90
25248;DHT22;13191;47.472;11.214;2023-04-03T04:55:26;2.30;99.90
25248;DHT22;13191;47.472;11.214;2023-04-03T04:57:51;2.20;99.90
25248;DHT22;13191;47.472;11.214;2023-04-03T05:00:17;2.20;99.90
25248;DHT22;13191;47.472;11.214;2023-04-03T05:02:42;2.10;99.90
25248;DHT22;13191;47.472;11.214;2023-04-03T05:05:08;2.10;99.90
25248;DHT22;13191;47.472;11.214;2023-04-03T05:07:34;1.90;99.90
25248;DHT22;13191;47.472;11.214;2023-04-03T05:10:01;1.90;99.90
25248;DHT22;13191;47.472;11.214;2023-04-03T05:12:28;2.00;99.90
25248;DHT22;13191;47.472;11.214;2023-04-03T05:14:53;2.00;99.90
25248;DHT22;13191;47.472;11.214;2023-04-03T05:17:19;1.90;99.90
25248;DHT22;13191;47.472;11.214;2023-04-03T05:19:44;2.00;99.90
25248;DHT22;13191;47.472;11.214;2023-04-03T05:22:10;2.00;99.90
25248;DHT22;13191;47.472;11.214;2023-04-03T05:24:35;2.10;99.90
25248;DHT22;13191;47.472;11.214;2023-04-03T05:27:01;2.10;99.90
25248;DHT22;13191;47.472;11.214;2023-04-03T05:29:26;2.10;99.90
25248;DHT22;13191;47.472;11.214;2023-04-03T05:31:52;2.10;99.90
25248;DHT22;13191;47.472;11.214;2023-04-03T05:34:17;2.00;99.90
25248;DHT22;13191;47.472;11.214;2023-04-03T05:36:43;2.00;99.90
25248;DHT22;13191;47.472;11.214;2023-04-03T05:39:09;2.00;99.90
25248;DHT22;13191;47.472;11.214;2023-04-03T05:41:34;2.00;99.90
25248;DHT22;13191;47.472;11.214;2023-04-03T05:44:00;2.00;99.90
25248;DHT22;13191;47.472;11.214;2023-04-03T05:46:25;2.00;99.90
25248;DHT22;13191;47.472;11.214;2023-04-03T05:48:51;2.00;99.90
25248;DHT22;13191;47.472;11.214;2023-04-03T05:51:18;2.00;99.90
25248;DHT22;13191;47.472;11.214;2023-04-03T05:53:43;2.00;99.90
25248;DHT22;13191;47.472;11.214;2023-04-03T05:56:09;2.00;99.90
25248;DHT22;13191;47.472;11.214;2023-04-03T05:58:35;1.90;99.90
25248;DHT22;13191;47.472;11.214;2023-04-03T06:01:01;1.90;99.90
25248;DHT22;13191;47.472;11.214;2023-04-03T06:03:26;1.90;99.90
25248;DHT22;13191;47.472;11.214;2023-04-03T06:05:52;1.80;99.90
25248;DHT22;13191;47.472;11.214;2023-04-03T06:08:17;1.70;99.90
25248;DHT22;13191;47.472;11.214;2023-04-03T06:10:44;1.60;99.90
25248;DHT22;13191;47.472;11.214;2023-04-03T06:13:10;1.70;99.90
25248;DHT22;13191;47.472;11.214;2023-04-03T06:15:36;1.70;99.90
25248;DHT22;13191;47.472;11.214;2023-04-03T06:18:01;1.70;99.90
25248;DHT22;13191;47.472;11.214;2023-04-03T06:20:27;1.70;99.90
25248;DHT22;13191;47.472;11.214;2023-04-03T06:22:53;1.70;99.90
25248;DHT22;13191;47.472;11.214;2023-04-03T06:25:18;1.70;99.90
25248;DHT22;13191;47.472;11.214;2023-04-03T06:27:44;1.70;99.90
25248;DHT22;13191;47.472;11.214;2023-04-03T06:30:10;1.60;99.90
25248;DHT22;13191;47.472;11.214;2023-04-03T06:32:36;1.60;99.90
25248;DHT22;13191;47.472;11.214;2023-04-03T06:35:01;1.70;99.90
25248;DHT22;13191;47.472;11.214;2023-04-03T06:37:27;1.70;99.90
25248;DHT22;13191;47.472;11.214;2023-04-03T06:39:54;1.80;99.90
25248;DHT22;13191;47.472;11.214;2023-04-03T06:42:20;1.90;99.90
25248;DHT22;13191;47.472;11.214;2023-04-03T06:44:46;1.90;99.90
25248;DHT22;13191;47.472;11.214;2023-04-03T06:47:12;2.00;99.90
25248;DHT22;13191;47.472;11.214;2023-04-03T06:49:38;2.10;99.90
25248;DHT22;13191;47.472;11.214;2023-04-03T06:52:04;2.10;99.90
25248;DHT22;13191;47.472;11.214;2023-04-03T06:54:30;2.20;99.90
25248;DHT22;13191;47.472;11.214;2023-04-03T06:56:56;2.30;99.90
25248;DHT22;13191;47.472;11.214;2023-04-03T06:59:22;2.30;99.90
25248;DHT22;13191;47.472;11.214;2023-04-03T07:01:47;2.40;99.90
25248;DHT22;13191;47.472;11.214;2023-04-03T07:04:14;2.40;99.90
25248;DHT22;13191;47.472;11.214;2023-04-03T07:06:40;2.40;99.90
25248;DHT22;13191;47.472;11.214;2023-04-03T07:09:07;2.50;99.90
25248;DHT22;13191;47.472;11.214;2023-04-03T07:11:32;2.50;99.90
25248;DHT22;13191;47.472;11.214;2023-04-03T07:13:58;2.50;99.90
25248;DHT22;13191;47.472;11.214;2023-04-03T07:16:23;2.50;99.90
25248;DHT22;13191;47.472;11.214;2023-04-03T07:18:49;2.50;99.90
25248;DHT22;13191;47.472;11.214;2023-04-03T07:21:14;2.50;99.90
25248;DHT22;13191;47.472;11.214;2023-04-03T07:23:40;2.50;99.90
25248;DHT22;13191;47.472;11.214;2023-04-03T07:26:05;2.60;99.90
25248;DHT22;13191;47.472;11.214;2023-04-03T07:28:31;2.70;99.90
25248;DHT22;13191;47.472;11.214;2023-04-03T07:31:04;2.70;99.90
25248;DHT22;13191;47.472;11.214;2023-04-03T07:33:31;2.40;99.90
25248;DHT22;13191;47.472;11.214;2023-04-03T07:35:57;2.30;99.90
25248;DHT22;13191;47.472;11.214;2023-04-03T07:38:22;2.20;99.90
25248;DHT22;13191;47.472;11.214;2023-04-03T07:40:49;2.10;99.90
25248;DHT22;13191;47.472;11.214;2023-04-03T07:43:15;2.00;99.90
25248;DHT22;13191;47.472;11.214;2023-04-03T07:45:41;2.00;99.90
25248;DHT22;13191;47.472;11.214;2023-04-03T07:48:07;2.10;99.90
25248;DHT22;13191;47.472;11.214;2023-04-03T07:50:32;2.20;99.90
25248;DHT22;13191;47.472;11.214;2023-04-03T07:52:58;2.30;99.90
25248;DHT22;13191;47.472;11.214;2023-04-03T07:55:24;2.40;99.90
25248;DHT22;13191;47.472;11.214;2023-04-03T07:57:49;2.50;99.90
25248;DHT22;13191;47.472;11.214;2023-04-03T08:00:15;2.60;99.90
25248;DHT22;13191;47.472;11.214;2023-04-03T08:02:43;2.60;99.90
25248;DHT22;13191;47.472;11.214;2023-04-03T08:05:10;2.70;99.90
25248;DHT22;13191;47.472;11.214;2023-04-03T08:07:36;2.80;99.90
25248;DHT22;13191;47.472;11.214;2023-04-03T08:10:02;2.80;99.90
25248;DHT22;13191;47.472;11.214;2023-04-03T08:12:28;3.00;99.90
25248;DHT22;13191;47.472;11.214;2023-04-03T08:14:55;3.00;99.90
25248;DHT22;13191;47.472;11.214;2023-04-03T08:17:21;3.10;99.90
25248;DHT22;13191;47.472;11.214;2023-04-03T08:19:47;3.10;99.90
25248;DHT22;13191;47.472;11.214;2023-04-03T08:22:12;3.20;99.90
25248;DHT22;13191;47.472;11.214;2023-04-03T08:24:38;3.10;99.90
25248;DHT22;13191;47.472;11.214;2023-04-03T08:27:03;3.10;99.90
25248;DHT22;13191;47.472;11.214;2023-04-03T08:29:29;3.20;99.90
25248;DHT22;13191;47.472;11.214;2023-04-03T08:31:54;3.30;99.90
25248;DHT22;13191;47.472;11.214;2023-04-03T08:34:23;3.40;99.90
25248;DHT22;13191;47.472;11.214;2023-04-03T08:36:50;3.40;99.90
25248;DHT22;13191;47.472;11.214;2023-04-03T08:39:15;3.40;99.90
25248;DHT22;13191;47.472;11.214;2023-04-03T08:41:42;3.50;99.90
25248;DHT22;13191;47.472;11.214;2023-04-03T08:46:40;3.50;99.90
25248;DHT22;13191;47.472;11.214;2023-04-03T08:49:10;3.60;99.90
25248;DHT22;13191;47.472;11.214;2023-04-03T08:51:36;3.50;99.90
25248;DHT22;13191;47.472;11.214;2023-04-03T08:54:05;3.50;99.90
25248;DHT22;13191;47.472;11.214;2023-04-03T08:56:33;3.50;99.90
25248;DHT22;13191;47.472;11.214;2023-04-03T08:59:00;3.60;99.90
25248;DHT22;13191;47.472;11.214;2023-04-03T09:01:29;3.70;99.90
25248;DHT22;13191;47.472;11.214;2023-04-03T09:03:57;3.70;99.90
25248;DHT22;13191;47.472;11.214;2023-04-03T09:06:26;3.80;99.90
25248;DHT22;13191;47.472;11.214;2023-04-03T09:11:27;3.80;99.90
25248;DHT22;13191;47.472;11.214;2023-04-03T09:14:01;3.90;99.90
25248;DHT22;13191;47.472;11.214;2023-04-03T09:19:20;3.90;99.90
25248;DHT22;13191;47.472;11.214;2023-04-03T09:21:47;3.90;99.90
25248;DHT22;13191;47.472;11.214;2023-04-03T09:24:13;3.90;99.90
25248;DHT22;13191;47.472;11.214;2023-04-03T09:26:58;4.00;99.90
25248;DHT22;13191;47.472;11.214;2023-04-03T09:29:27;4.00;99.90
25248;DHT22;13191;47.472;11.214;2023-04-03T09:31:56;4.10;99.90
25248;DHT22;13191;47.472;11.214;2023-04-03T09:34:28;4.00;99.90
25248;DHT22;13191;47.472;11.214;2023-04-03T09:36:56;4.10;99.90
25248;DHT22;13191;47.472;11.214;2023-04-03T09:39:23;4.20;99.90
25248;DHT22;13191;47.472;11.214;2023-04-03T09:42:02;4.20;99.90
25248;DHT22;13191;47.472;11.214;2023-04-03T09:46:54;4.30;99.90
25248;DHT22;13191;47.472;11.214;2023-04-03T09:49:19;4.30;99.90
25248;DHT22;13191;47.472;11.214;2023-04-03T09:51:45;4.30;99.90
25248;DHT22;13191;47.472;11.214;2023-04-03T09:56:52;4.40;99.90
25248;DHT22;13191;47.472;11.214;2023-04-03T09:59:20;4.30;99.90
25248;DHT22;13191;47.472;11.214;2023-04-03T10:04:43;4.20;99.90
25248;DHT22;13191;47.472;11.214;2023-04-03T10:07:28;4.20;99.90
25248;DHT22;13191;47.472;11.214;2023-04-03T10:09:58;4.30;99.90
25248;DHT22;13191;47.472;11.214;2023-04-03T10:12:24;4.30;99.90
25248;DHT22;13191;47.472;11.214;2023-04-03T10:17:19;4.30;99.90
25248;DHT22;13191;47.472;11.214;2023-04-03T10:19:59;4.30;99.90
25248;DHT22;13191;47.472;11.214;2023-04-03T10:25:16;4.20;99.90
25248;DHT22;13191;47.472;11.214;2023-04-03T10:27:59;4.00;99.90
25248;DHT22;13191;47.472;11.214;2023-04-03T10:33:10;3.90;99.90
25248;DHT22;13191;47.472;11.214;2023-04-03T10:35:44;3.90;99.90
25248;DHT22;13191;47.472;11.214;2023-04-03T10:38:20;3.90;99.90
25248;DHT22;13191;47.472;11.214;2023-04-03T10:41:07;4.00;99.90
25248;DHT22;13191;47.472;11.214;2023-04-03T10:51:16;3.10;99.90
25248;DHT22;13191;47.472;11.214;2023-04-03T10:59:02;2.90;99.90
25248;DHT22;13191;47.472;11.214;2023-04-03T11:01:33;2.70;99.90
25248;DHT22;13191;47.472;11.214;2023-04-03T11:03:59;2.60;99.90
25248;DHT22;13191;47.472;11.214;2023-04-03T11:06:45;2.60;99.90
25248;DHT22;13191;47.472;11.214;2023-04-03T11:11:38;2.40;99.90
25248;DHT22;13191;47.472;11.214;2023-04-03T11:14:09;2.30;99.90
25248;DHT22;13191;47.472;11.214;2023-04-03T11:16:36;2.30;99.90
25248;DHT22;13191;47.472;11.214;2023-04-03T11:19:21;2.40;99.90
25248;DHT22;13191;47.472;11.214;2023-04-03T11:21:54;2.40;99.90
25248;DHT22;13191;47.472;11.214;2023-04-03T11:24:26;2.30;99.90
25248;DHT22;13191;47.472;11.214;2023-04-03T11:26:52;2.30;99.90
25248;DHT22;13191;47.472;11.214;2023-04-03T11:29:20;2.10;99.90
25248;DHT22;13191;47.472;11.214;2023-04-03T11:36:54;2.10;99.90
25248;DHT22;13191;47.472;11.214;2023-04-03T11:39:23;2.20;99.90
25248;DHT22;13191;47.472;11.214;2023-04-03T11:41:49;2.40;99.90
25248;DHT22;13191;47.472;11.214;2023-04-03T11:44:32;2.40;99.90
25248;DHT22;13191;47.472;11.214;2023-04-03T11:46:58;2.40;99.90
25248;DHT22;13191;47.472;11.214;2023-04-03T11:52:10;2.30;99.90
25248;DHT22;13191;47.472;11.214;2023-04-03T11:54:42;2.10;99.90
25248;DHT22;13191;47.472;11.214;2023-04-03T11:57:22;1.90;99.90
25248;DHT22;13191;47.472;11.214;2023-04-03T11:59:48;1.90;99.90
25248;DHT22;13191;47.472;11.214;2023-04-03T12:02:34;1.90;99.90
25248;DHT22;13191;47.472;11.214;2023-04-03T12:07:44;2.10;99.90
25248;DHT22;13191;47.472;11.214;2023-04-03T12:10:30;2.20;99.90
25248;DHT22;13191;47.472;11.214;2023-04-03T12:12:56;2.30;99.90
25248;DHT22;13191;47.472;11.214;2023-04-03T12:15:41;2.40;99.90
25248;DHT22;13191;47.472;11.214;2023-04-03T12:20:55;2.60;99.90
25248;DHT22;13191;47.472;11.214;2023-04-03T12:23:25;2.60;99.90
25248;DHT22;13191;47.472;11.214;2023-04-03T12:25:51;2.60;99.90
25248;DHT22;13191;47.472;11.214;2023-04-03T12:28:17;2.60;99.90
25248;DHT22;13191;47.472;11.214;2023-04-03T12:30:42;2.60;99.90
25248;DHT22;13191;47.472;11.214;2023-04-03T12:33:14;2.60;99.90
25248;DHT22;13191;47.472;11.214;2023-04-03T12:35:47;2.60;99.90
25248;DHT22;13191;47.472;11.214;2023-04-03T12:44:11;2.80;99.90
25248;DHT22;13191;47.472;11.214;2023-04-03T12:46:45;2.90;99.90
25248;DHT22;13191;47.472;11.214;2023-04-03T12:51:45;3.10;99.90
25248;DHT22;13191;47.472;11.214;2023-04-03T12:54:15;3.20;99.90
25248;DHT22;13191;47.472;11.214;2023-04-03T12:56:41;3.30;99.90
25248;DHT22;13191;47.472;11.214;2023-04-03T12:59:14;3.40;99.90
25248;DHT22;13191;47.472;11.214;2023-04-03T13:01:41;3.40;99.90
25248;DHT22;13191;47.472;11.214;2023-04-03T13:04:07;3.50;99.90
25248;DHT22;13191;47.472;11.214;2023-04-03T13:06:42;3.50;99.90
25248;DHT22;13191;47.472;11.214;2023-04-03T13:09:22;3.60;99.90
25248;DHT22;13191;47.472;11.214;2023-04-03T13:11:49;3.60;99.90
25248;DHT22;13191;47.472;11.214;2023-04-03T13:14:17;3.60;99.90
25248;DHT22;13191;47.472;11.214;2023-04-03T13:16:52;3.60;99.90
25248;DHT22;13191;47.472;11.214;2023-04-03T13:19:18;3.60;99.90
25248;DHT22;13191;47.472;11.214;2023-04-03T13:21:43;3.70;99.90
25248;DHT22;13191;47.472;11.214;2023-04-03T13:24:10;3.70;99.90
25248;DHT22;13191;47.472;11.214;2023-04-03T13:26:36;3.80;99.90
25248;DHT22;13191;47.472;11.214;2023-04-03T13:29:04;3.80;99.90
25248;DHT22;13191;47.472;11.214;2023-04-03T13:31:32;3.90;99.90
25248;DHT22;13191;47.472;11.214;2023-04-03T13:34:02;3.90;99.90
25248;DHT22;13191;47.472;11.214;2023-04-03T13:36:35;3.90;99.90
25248;DHT22;13191;47.472;11.214;2023-04-03T13:39:21;3.90;99.90
25248;DHT22;13191;47.472;11.214;2023-04-03T13:41:48;3.90;99.90
25248;DHT22;13191;47.472;11.214;2023-04-03T13:44:15;3.90;99.90
25248;DHT22;13191;47.472;11.214;2023-04-03T13:46:41;4.00;99.90
25248;DHT22;13191;47.472;11.214;2023-04-03T13:49:27;4.10;99.90
25248;DHT22;13191;47.472;11.214;2023-04-03T13:51:54;4.20;99.90
25248;DHT22;13191;47.472;11.214;2023-04-03T13:54:20;4.20;99.90
25248;DHT22;13191;47.472;11.214;2023-04-03T13:56:52;4.30;99.90
25248;DHT22;13191;47.472;11.214;2023-04-03T14:01:51;4.30;99.90
25248;DHT22;13191;47.472;11.214;2023-04-03T14:04:20;4.40;99.90
25248;DHT22;13191;47.472;11.214;2023-04-03T17:48:31;3.10;99.90
25248;DHT22;13191;47.472;11.214;2023-04-03T17:50:57;3.10;99.90
25248;DHT22;13191;47.472;11.214;2023-04-03T17:53:22;3.10;99.90
25248;DHT22;13191;47.472;11.214;2023-04-03T17:55:48;3.10;99.90
25248;DHT22;13191;47.472;11.214;2023-04-03T17:58:13;3.20;99.90
25248;DHT22;13191;47.472;11.214;2023-04-03T18:00:40;3.10;99.90
25248;DHT22;13191;47.472;11.214;2023-04-03T18:03:06;3.10;99.90
25248;DHT22;13191;47.472;11.214;2023-04-03T18:05:31;3.10;99.90
25248;DHT22;13191;47.472;11.214;2023-04-03T18:07:57;3.10;99.90
25248;DHT22;13191;47.472;11.214;2023-04-03T18:10:24;3.00;99.90
25248;DHT22;13191;47.472;11.214;2023-04-03T18:12:50;3.00;99.90
25248;DHT22;13191;47.472;11.214;2023-04-03T18:15:15;2.90;99.90
25248;DHT22;13191;47.472;11.214;2023-04-03T18:17:41;2.90;99.90
25248;DHT22;13191;47.472;11.214;2023-04-03T18:20:06;2.90;99.90
25248;DHT22;13191;47.472;11.214;2023-04-03T18:22:33;2.90;99.90
25248;DHT22;13191;47.472;11.214;2023-04-03T18:24:59;2.90;99.90
25248;DHT22;13191;47.472;11.214;2023-04-03T18:27:25;3.00;99.90
25248;DHT22;13191;47.472;11.214;2023-04-03T18:29:58;2.90;99.90
25248;DHT22;13191;47.472;11.214;2023-04-03T18:32:24;3.00;99.90
25248;DHT22;13191;47.472;11.214;2023-04-03T18:34:50;2.90;99.90
25248;DHT22;13191;47.472;11.214;2023-04-03T18:37:15;2.90;99.90
25248;DHT22;13191;47.472;11.214;2023-04-03T18:39:41;2.90;99.90
25248;DHT22;13191;47.472;11.214;2023-04-03T18:42:08;2.80;99.90
25248;DHT22;13191;47.472;11.214;2023-04-03T18:44:34;2.80;99.90
25248;DHT22;13191;47.472;11.214;2023-04-03T18:47:00;2.80;99.90
25248;DHT22;13191;47.472;11.214;2023-04-03T18:49:29;2.80;99.90
25248;DHT22;13191;47.472;11.214;2023-04-03T18:51:56;2.80;99.90
25248;DHT22;13191;47.472;11.214;2023-04-03T18:54:22;2.60;99.90
25248;DHT22;13191;47.472;11.214;2023-04-03T18:56:47;2.50;99.90
25248;DHT22;13191;47.472;11.214;2023-04-03T18:59:13;2.50;99.90
25248;DHT22;13191;47.472;11.214;2023-04-03T19:01:39;2.40;99.90
25248;DHT22;13191;47.472;11.214;2023-04-03T19:04:04;2.30;99.90
25248;DHT22;13191;47.472;11.214;2023-04-03T19:06:33;2.30;99.90
25248;DHT22;13191;47.472;11.214;2023-04-03T19:09:00;2.40;99.90
25248;DHT22;13191;47.472;11.214;2023-04-03T19:11:25;2.40;99.90
25248;DHT22;13191;47.472;11.214;2023-04-03T19:13:51;2.40;99.90
25248;DHT22;13191;47.472;11.214;2023-04-03T19:16:17;2.40;99.90
25248;DHT22;13191;47.472;11.214;2023-04-03T19:18:42;2.40;99.90
25248;DHT22;13191;47.472;11.214;2023-04-03T19:21:08;2.40;99.90
25248;DHT22;13191;47.472;11.214;2023-04-03T19:23:33;2.50;99.90
25248;DHT22;13191;47.472;11.214;2023-04-03T19:25:59;2.50;99.90
25248;DHT22;13191;47.472;11.214;2023-04-03T19:28:25;2.50;99.90
25248;DHT22;13191;47.472;11.214;2023-04-03T19:30:51;2.50;99.90
25248;DHT22;13191;47.472;11.214;2023-04-03T19:33:18;2.40;99.90
25248;DHT22;13191;47.472;11.214;2023-04-03T19:35:43;2.20;99.90
25248;DHT22;13191;47.472;11.214;2023-04-03T19:38:09;2.30;99.90
25248;DHT22;13191;47.472;11.214;2023-04-03T19:40:34;2.30;99.90
25248;DHT22;13191;47.472;11.214;2023-04-03T19:43:02;2.10;99.90
25248;DHT22;13191;47.472;11.214;2023-04-03T19:45:29;2.00;99.90
25248;DHT22;13191;47.472;11.214;2023-04-03T19:47:55;2.00;99.90
25248;DHT22;13191;47.472;11.214;2023-04-03T19:50:23;2.00;99.90
25248;DHT22;13191;47.472;11.214;2023-04-03T19:52:49;2.00;99.90
25248;DHT22;13191;47.472;11.214;2023-04-03T19:55:14;2.00;99.90
25248;DHT22;13191;47.472;11.214;2023-04-03T19:57:40;2.00;99.90
25248;DHT22;13191;47.472;11.214;2023-04-03T20:00:05;1.90;99.90
25248;DHT22;13191;47.472;11.214;2023-04-03T20:02:31;1.90;99.90
25248;DHT22;13191;47.472;11.214;2023-04-03T20:04:57;1.90;99.90
25248;DHT22;13191;47.472;11.214;2023-04-03T20:07:22;1.90;99.90
25248;DHT22;13191;47.472;11.214;2023-04-03T20:09:49;1.90;99.90
25248;DHT22;13191;47.472;11.214;2023-04-03T20:12:14;1.90;99.90
25248;DHT22;13191;47.472;11.214;2023-04-03T20:14:40;1.80;99.90
25248;DHT22;13191;47.472;11.214;2023-04-03T20:17:06;1.70;99.90
25248;DHT22;13191;47.472;11.214;2023-04-03T20:19:33;1.70;99.90
25248;DHT22;13191;47.472;11.214;2023-04-03T20:21:59;1.80;99.90
25248;DHT22;13191;47.472;11.214;2023-04-03T20:24:24;1.70;99.90
25248;DHT22;13191;47.472;11.214;2023-04-03T20:26:52;1.70;99.90